Terminal Aerodrome Forecast
Issued by NWS Cleveland, OH

Home | Current Version | Previous Version | Text Only | Print | Product List | Glossary Off
Versions: 1 2 3 4 5 6 7 8 9 10 11 12 13 14 15 16

000
FTUS41 KCLE 150545
TAFERI
TAF
KERI 150545Z 1506/1606 16008KT P6SM FEW250
     FM151700 17015G25KT P6SM OVC200
     FM152200 19015G25KT P6SM -SHRA OVC080
     FM160000 18020G30KT 3SM -SHRA BR OVC025
     FM160100 19020G30KT 3SM -SHRA BR OVC015
     FM160500 22020G30KT 6SM -SHRA BR OVC010=

USA.gov is the U.S. government's official web portal to all federal, state and local government web resources and services.